createdAt,value
2022-10-11T00:00:13.236Z,12.02
2022-10-11T00:02:40.270Z,10.82
2022-10-11T00:05:08.341Z,13.07
2022-10-11T00:07:36.886Z,17.17
2022-10-11T00:10:16.229Z,11.63
2022-10-11T00:12:54.020Z,13.10
2022-10-11T00:15:32.695Z,15.10
2022-10-11T00:18:10.328Z,13.23
2022-10-11T00:20:48.538Z,11.38
2022-10-11T00:23:26.775Z,11.43
2022-10-11T00:26:07.537Z,13.07
2022-10-11T00:28:46.348Z,15.18
2022-10-11T00:31:24.684Z,10.50
2022-10-11T00:34:03.657Z,14.05
2022-10-11T00:36:42.687Z,11.45
2022-10-11T00:39:21.127Z,12.63
2022-10-11T00:42:00.544Z,10.98
2022-10-11T00:44:40.952Z,10.57
2022-10-11T00:47:21.749Z,11.93
2022-10-11T00:50:01.800Z,8.82
2022-10-11T00:52:48.162Z,11.15
2022-10-11T00:55:31.423Z,11.95
2022-10-11T00:58:09.571Z,17.75
2022-10-11T01:00:47.435Z,7.78
2022-10-11T01:03:28.622Z,14.30
2022-10-11T01:06:07.604Z,10.82
2022-10-11T01:08:58.412Z,13.98
2022-10-11T01:11:41.441Z,18.27
2022-10-11T01:14:42.755Z,14.32
2022-10-11T01:17:40.560Z,9.75
2022-10-11T01:20:30.809Z,12.75
2022-10-11T01:23:27.318Z,12.40
2022-10-11T01:26:22.037Z,11.73
2022-10-11T01:29:45.066Z,11.45
2022-10-11T01:32:30.949Z,27.75
2022-10-11T01:35:15.309Z,20.15
2022-10-11T01:38:08.421Z,9.18
2022-10-11T01:40:55.212Z,13.63
2022-10-11T01:43:35.155Z,9.90
2022-10-11T01:46:13.670Z,10.45
2022-10-11T01:48:58.431Z,9.38
2022-10-11T01:51:45.104Z,12.65
2022-10-11T01:54:56.457Z,9.43
2022-10-11T01:58:12.649Z,12.65
2022-10-11T02:01:01.461Z,14.95
2022-10-11T02:03:48.270Z,15.05
2022-10-11T02:06:34.426Z,12.63
2022-10-11T02:09:15.077Z,8.77
2022-10-11T02:11:56.713Z,12.70
2022-10-11T02:14:40.567Z,9.65
2022-10-11T02:17:23.185Z,13.23
2022-10-11T02:20:06.587Z,15.98
2022-10-11T02:22:49.266Z,9.35
2022-10-11T02:25:34.864Z,11.27
2022-10-11T02:28:18.896Z,10.88
2022-10-11T02:31:01.885Z,13.35
2022-10-11T02:34:16.728Z,11.00
2022-10-11T02:37:10.689Z,12.85
2022-10-11T02:39:55.543Z,15.10
2022-10-11T02:42:40.516Z,11.98
2022-10-11T02:45:25.575Z,10.65
2022-10-11T02:48:06.238Z,11.20
2022-10-11T02:50:45.073Z,13.57
2022-10-11T02:53:24.393Z,10.85
2022-10-11T02:56:03.097Z,18.45
2022-10-11T02:58:41.100Z,18.23
2022-10-11T03:01:20.390Z,12.85
2022-10-11T03:03:58.998Z,15.77
2022-10-11T03:06:37.220Z,13.00
2022-10-11T03:09:15.444Z,14.07
2022-10-11T03:11:53.855Z,20.00
2022-10-11T03:14:31.845Z,16.90
2022-10-11T03:17:34.647Z,16.98
2022-10-11T03:20:07.965Z,10.82
2022-10-11T03:22:45.677Z,13.75
2022-10-11T03:25:23.845Z,14.80
2022-10-11T03:28:02.120Z,13.68
2022-10-11T03:30:40.275Z,14.75
2022-10-11T03:33:19.353Z,10.95
2022-10-11T03:35:58.248Z,13.38
2022-10-11T03:38:36.500Z,9.88
2022-10-11T03:41:14.672Z,16.13
2022-10-11T03:43:52.825Z,13.43
2022-10-11T03:46:31.566Z,15.70
2022-10-11T03:49:09.344Z,15.60
2022-10-11T03:51:47.416Z,14.70
2022-10-11T03:54:25.980Z,17.75
2022-10-11T03:57:04.129Z,13.88
2022-10-11T03:59:42.147Z,16.08
2022-10-11T04:02:21.399Z,14.13
2022-10-11T04:05:00.144Z,14.35
2022-10-11T04:07:39.486Z,13.77
2022-10-11T04:10:18.387Z,17.90
2022-10-11T04:12:56.236Z,16.08
2022-10-11T04:15:34.577Z,19.33
2022-10-11T04:18:12.737Z,14.75
2022-10-11T04:20:51.198Z,14.00
2022-10-11T04:23:31.512Z,12.77
2022-10-11T04:26:09.161Z,16.15
2022-10-11T04:28:47.141Z,17.08
2022-10-11T04:31:25.328Z,14.82
2022-10-11T04:34:03.760Z,20.95
2022-10-11T04:36:44.347Z,16.33
2022-10-11T04:39:37.197Z,14.35
2022-10-11T04:42:14.670Z,10.50
2022-10-11T04:44:52.832Z,9.98
2022-10-11T04:47:31.285Z,15.90
2022-10-11T04:50:09.302Z,16.08
2022-10-11T04:52:47.512Z,12.95
2022-10-11T04:55:27.553Z,17.20
2022-10-11T04:58:05.107Z,13.53
2022-10-11T05:00:43.783Z,19.75
2022-10-11T05:03:22.011Z,17.25
2022-10-11T05:06:05.162Z,13.60
2022-10-11T05:08:46.691Z,14.43
2022-10-11T05:11:26.615Z,16.77
2022-10-11T05:14:05.115Z,17.65
2022-10-11T05:16:43.456Z,14.18
2022-10-11T05:19:22.288Z,15.60
2022-10-11T05:22:00.467Z,18.38
2022-10-11T05:24:38.741Z,12.80
2022-10-11T05:27:16.880Z,16.05
2022-10-11T05:29:55.210Z,13.82
2022-10-11T05:32:33.619Z,14.18
2022-10-11T05:35:11.524Z,11.38
2022-10-11T05:37:49.774Z,11.18
2022-10-11T05:40:27.937Z,17.13
2022-10-11T05:43:06.590Z,13.70
2022-10-11T05:45:45.061Z,15.13
2022-10-11T05:48:24.151Z,13.43
2022-10-11T05:51:05.291Z,17.52
2022-10-11T05:53:43.785Z,9.93
2022-10-11T05:56:24.711Z,11.63
2022-10-11T05:59:04.444Z,11.50
2022-10-11T06:01:43.216Z,10.90
2022-10-11T06:04:21.561Z,9.20
2022-10-11T06:06:59.541Z,11.30
2022-10-11T06:09:37.921Z,8.32
2022-10-11T06:12:16.336Z,18.58
2022-10-11T06:15:11.691Z,11.50
2022-10-11T06:18:09.495Z,12.77
2022-10-11T06:21:13.827Z,18.13
2022-10-11T06:24:07.034Z,20.27
2022-10-11T06:27:02.619Z,18.55
2022-10-11T06:29:54.999Z,16.98
2022-10-11T06:32:51.091Z,14.50
2022-10-11T06:35:43.221Z,14.55
2022-10-11T06:38:44.502Z,16.98
2022-10-11T06:41:40.251Z,15.80
2022-10-11T06:44:41.161Z,14.85
2022-10-11T06:47:32.962Z,15.90
2022-10-11T06:50:54.461Z,21.80
2022-10-11T06:53:40.711Z,15.35
2022-10-11T06:56:33.075Z,13.95
2022-10-11T06:59:33.705Z,16.55
2022-10-11T07:02:25.334Z,13.07
2022-10-11T07:05:17.592Z,12.80
2022-10-11T07:08:13.300Z,18.15
2022-10-11T07:11:14.408Z,14.90
2022-10-11T07:14:15.208Z,11.63
2022-10-11T07:17:19.522Z,11.27
2022-10-11T07:20:15.023Z,6.22
2022-10-11T07:23:07.245Z,3.83
2022-10-11T07:26:02.270Z,3.55
2022-10-11T07:28:57.835Z,5.10
2022-10-11T07:32:04.980Z,6.30
2022-10-11T07:35:00.522Z,3.28
2022-10-11T07:37:56.158Z,4.28
2022-10-11T07:40:47.659Z,9.15
2022-10-11T07:43:39.578Z,8.80
2022-10-11T07:46:34.243Z,3.42
2022-10-11T07:49:38.241Z,5.43
2022-10-11T07:52:39.074Z,6.22
2022-10-11T07:55:40.259Z,6.05
2022-10-11T07:58:32.274Z,5.72
2022-10-11T08:01:27.693Z,2.63
2022-10-11T08:04:19.489Z,4.82
2022-10-11T08:07:13.417Z,3.10
2022-10-11T08:10:26.379Z,8.27
2022-10-11T08:13:21.468Z,5.53
2022-10-11T08:16:20.015Z,8.52
2022-10-11T08:19:21.317Z,2.95
2022-10-11T08:22:15.694Z,6.15
2022-10-11T08:25:11.484Z,7.38
2022-10-11T08:28:07.919Z,10.00
2022-10-11T08:31:03.796Z,7.00
2022-10-11T08:33:59.812Z,4.78
2022-10-11T08:36:57.823Z,4.78
2022-10-11T08:39:50.205Z,12.23
2022-10-11T08:43:05.945Z,10.57
2022-10-11T08:46:03.166Z,8.05
2022-10-11T08:48:35.994Z,6.53
2022-10-11T08:51:13.708Z,9.85
2022-10-11T08:54:08.170Z,6.00
2022-10-11T08:56:40.041Z,7.63
2022-10-11T08:59:13.028Z,8.40
2022-10-11T09:01:52.664Z,7.60
2022-10-11T09:04:20.074Z,5.60
2022-10-11T09:07:07.729Z,7.55
2022-10-11T09:10:12.763Z,6.93
2022-10-11T09:13:13.117Z,5.65
2022-10-11T09:16:11.128Z,8.07
2022-10-11T09:19:03.978Z,10.02
2022-10-11T09:21:36.893Z,6.82
2022-10-11T09:24:25.530Z,15.45
2022-10-11T09:26:57.297Z,7.05
2022-10-11T09:29:30.142Z,10.18
2022-10-11T09:31:58.420Z,5.93
2022-10-11T09:34:32.423Z,4.22
2022-10-11T09:37:03.035Z,6.30
2022-10-11T09:40:07.318Z,3.50
2022-10-11T09:42:34.443Z,8.50
2022-10-11T09:45:02.297Z,10.38
2022-10-11T09:47:33.164Z,4.32
2022-10-11T09:50:16.655Z,5.40
2022-10-11T09:53:09.709Z,8.15
2022-10-11T09:55:54.150Z,9.73
2022-10-11T09:58:31.160Z,8.68
2022-10-11T10:01:08.597Z,6.40
2022-10-11T10:03:43.856Z,6.22
2022-10-11T10:06:22.616Z,9.50
2022-10-11T10:08:50.758Z,6.32
2022-10-11T10:11:19.482Z,6.65
2022-10-11T10:13:56.958Z,5.13
2022-10-11T10:16:24.019Z,6.40
2022-10-11T10:18:57.271Z,5.30
2022-10-11T10:21:37.431Z,6.20
2022-10-11T10:24:33.597Z,6.95
2022-10-11T10:27:21.295Z,7.95
2022-10-11T10:30:10.232Z,8.93
2022-10-11T10:33:03.797Z,8.20
2022-10-11T10:35:45.652Z,5.80
2022-10-11T10:38:12.675Z,6.97
2022-10-11T10:40:47.287Z,9.38
2022-10-11T10:43:20.335Z,9.30
2022-10-11T10:45:57.893Z,7.60
2022-10-11T10:49:01.694Z,7.72
2022-10-11T10:51:45.344Z,5.97
2022-10-11T10:54:21.687Z,5.88
2022-10-11T10:56:55.424Z,8.60
2022-10-11T10:59:28.263Z,7.20
2022-10-11T11:02:15.922Z,4.47
2022-10-11T11:05:05.393Z,4.43
2022-10-11T11:07:46.042Z,4.00
2022-10-11T11:10:21.970Z,6.93
2022-10-11T11:13:26.461Z,6.55
2022-10-11T11:16:04.833Z,7.90
2022-10-11T11:18:34.942Z,7.20
2022-10-11T11:21:04.778Z,5.95
2022-10-11T11:23:43.314Z,5.10
2022-10-11T11:26:30.874Z,6.68
2022-10-11T11:29:15.018Z,10.55
2022-10-11T11:32:09.810Z,4.57
2022-10-11T11:34:47.962Z,6.07
2022-10-11T11:37:27.156Z,5.55
2022-10-11T11:39:59.212Z,4.07
2022-10-11T11:42:37.189Z,4.07
2022-10-11T11:45:27.496Z,6.07
2022-10-11T11:48:04.935Z,6.28
2022-10-11T11:50:42.176Z,4.90
2022-10-11T11:53:18.876Z,9.55
2022-10-11T11:56:08.686Z,11.25
2022-10-11T11:58:59.708Z,8.05
2022-10-11T12:02:07.063Z,3.30
2022-10-11T12:04:40.539Z,9.60
2022-10-11T12:07:17.675Z,6.43
2022-10-11T12:09:51.828Z,5.03
2022-10-11T12:12:37.155Z,3.83
2022-10-11T12:15:10.303Z,6.38
2022-10-11T12:18:01.800Z,7.90
2022-10-11T12:20:40.946Z,6.07
2022-10-11T12:23:29.249Z,6.32
2022-10-11T12:26:33.493Z,7.05
2022-10-11T12:29:06.093Z,5.18
2022-10-11T12:31:35.951Z,6.50
2022-10-11T12:34:17.142Z,4.95
2022-10-11T12:36:47.095Z,7.85
2022-10-11T12:39:20.160Z,5.03
2022-10-11T12:41:55.679Z,3.47
2022-10-11T12:44:24.218Z,7.88
2022-10-11T12:46:51.084Z,9.20
2022-10-11T12:49:20.888Z,7.18
2022-10-11T12:52:13.804Z,6.25
2022-10-11T12:54:59.463Z,5.35
2022-10-11T12:57:46.519Z,8.30
2022-10-11T13:00:39.992Z,8.32
2022-10-11T13:03:32.810Z,9.50
2022-10-11T13:06:02.073Z,5.50
2022-10-11T13:08:38.034Z,5.28
2022-10-11T13:11:08.893Z,3.55
2022-10-11T13:13:51.032Z,7.25
2022-10-11T13:16:21.497Z,8.05
2022-10-11T13:18:50.759Z,6.60
2022-10-11T13:21:31.150Z,12.27
2022-10-11T13:24:19.757Z,10.52
2022-10-11T13:26:49.111Z,4.40
2022-10-11T13:29:38.154Z,9.13
2022-10-11T13:32:13.678Z,4.13
2022-10-11T13:34:41.856Z,6.63
2022-10-11T13:37:17.426Z,13.77
2022-10-11T13:39:45.808Z,7.47
2022-10-11T13:42:16.046Z,3.55
2022-10-11T13:44:44.583Z,5.00
2022-10-11T13:47:14.786Z,8.40
2022-10-11T13:49:53.626Z,6.05
2022-10-11T13:52:24.059Z,4.50
2022-10-11T13:54:59.079Z,5.97
2022-10-11T13:57:40.771Z,6.57
2022-10-11T14:00:10.472Z,6.43
2022-10-11T14:02:39.598Z,4.05
2022-10-11T14:05:06.813Z,4.10
2022-10-11T14:07:38.532Z,11.02
2022-10-11T14:10:07.018Z,4.80
2022-10-11T14:12:44.452Z,5.97
2022-10-11T14:15:35.904Z,7.03
2022-10-11T14:18:33.792Z,5.55
2022-10-11T14:21:19.130Z,11.27
2022-10-11T14:23:53.397Z,6.90
2022-10-11T14:26:21.770Z,8.30
2022-10-11T14:29:00.738Z,9.02
2022-10-11T14:31:30.385Z,10.07
2022-10-11T14:33:58.364Z,10.15
2022-10-11T14:36:26.147Z,9.23
2022-10-11T14:38:53.690Z,8.40
2022-10-11T14:41:20.920Z,9.88
2022-10-11T14:43:47.856Z,13.93
2022-10-11T14:46:24.967Z,14.27
2022-10-11T14:48:56.048Z,5.25
2022-10-11T14:51:29.277Z,13.40
2022-10-11T14:53:56.278Z,7.20
2022-10-11T14:56:23.751Z,18.17
2022-10-11T14:58:51.010Z,14.63
2022-10-11T15:01:18.168Z,13.77
2022-10-11T15:03:45.310Z,11.05
2022-10-11T15:06:22.900Z,14.15
2022-10-11T15:08:50.459Z,10.68
2022-10-11T15:11:19.125Z,8.15
2022-10-11T15:13:46.566Z,10.70
2022-10-11T15:16:15.464Z,15.93
2022-10-11T15:18:42.847Z,11.52
2022-10-11T15:21:16.462Z,16.00
2022-10-11T15:23:43.372Z,10.65
2022-10-11T15:26:14.958Z,12.27
2022-10-11T15:28:43.002Z,13.70
2022-10-11T15:31:11.142Z,19.40
2022-10-11T15:33:39.027Z,8.63
2022-10-11T15:36:08.584Z,14.43
2022-10-11T15:38:36.192Z,18.88
2022-10-11T15:41:03.572Z,8.90
2022-10-11T15:43:30.752Z,11.85
2022-10-11T15:45:58.100Z,12.35
2022-10-11T15:48:26.987Z,12.27
2022-10-11T15:50:54.459Z,14.40
2022-10-11T15:53:25.906Z,14.38
2022-10-11T15:55:54.547Z,16.52
2022-10-11T15:58:28.346Z,24.20
2022-10-11T16:00:57.782Z,14.93
2022-10-11T16:03:27.628Z,11.55
2022-10-11T16:05:55.719Z,17.60
2022-10-11T16:08:23.539Z,12.70
2022-10-11T16:10:51.539Z,16.15
2022-10-11T16:13:18.614Z,9.35
2022-10-11T16:15:46.218Z,12.43
2022-10-11T16:18:14.928Z,16.52
2022-10-11T16:20:44.747Z,10.88
2022-10-11T16:23:12.185Z,9.75
2022-10-11T16:25:40.033Z,17.15
2022-10-11T16:28:08.180Z,17.13
2022-10-11T16:30:39.069Z,13.38
2022-10-11T16:33:06.113Z,12.55
2022-10-11T16:35:33.194Z,18.15
2022-10-11T16:38:01.051Z,11.27
2022-10-11T16:40:29.964Z,13.80
2022-10-11T16:42:56.888Z,12.80
2022-10-11T16:45:24.156Z,19.20
2022-10-11T16:47:51.110Z,11.73
2022-10-11T16:50:18.737Z,12.77
2022-10-11T16:52:45.813Z,12.65
2022-10-11T16:55:12.759Z,14.05
2022-10-11T16:57:39.854Z,11.45
2022-10-11T17:00:10.696Z,7.80
2022-10-11T17:02:37.768Z,13.70
2022-10-11T17:05:05.044Z,15.43
2022-10-11T17:07:32.390Z,8.73
2022-10-11T17:10:01.187Z,9.10
2022-10-11T17:12:28.327Z,10.48
2022-10-11T17:14:55.564Z,11.95
2022-10-11T17:17:22.521Z,10.32
2022-10-11T17:19:49.588Z,13.52
2022-10-11T17:22:19.369Z,10.40
2022-10-11T17:24:46.623Z,6.60
2022-10-11T17:27:13.770Z,10.82
2022-10-11T17:29:41.199Z,7.00
2022-10-11T17:32:08.565Z,9.38
2022-10-11T17:34:35.694Z,11.82
2022-10-11T17:37:02.719Z,15.70
2022-10-11T17:39:29.676Z,9.05
2022-10-11T17:41:56.681Z,16.48
2022-10-11T17:44:23.647Z,14.43
2022-10-11T17:46:50.641Z,17.70
2022-10-11T17:49:17.748Z,11.70
2022-10-11T17:51:44.979Z,11.00
2022-10-11T17:54:13.172Z,12.32
2022-10-11T17:56:41.807Z,9.48
2022-10-11T17:59:18.737Z,19.35
2022-10-11T18:01:45.680Z,12.90
2022-10-11T18:04:16.798Z,18.23
2022-10-11T18:06:46.252Z,13.48
2022-10-11T18:09:15.264Z,12.00
2022-10-11T18:11:43.157Z,14.13
2022-10-11T18:14:10.162Z,18.67
2022-10-11T18:16:38.097Z,15.93
2022-10-11T18:19:08.309Z,17.42
2022-10-11T18:21:36.788Z,14.20
2022-10-11T18:24:12.771Z,18.98
2022-10-11T18:26:39.943Z,16.35
2022-10-11T18:29:07.428Z,11.85
2022-10-11T18:31:35.340Z,13.65
2022-10-11T18:34:04.500Z,11.48
2022-10-11T18:36:32.599Z,23.23
2022-10-11T18:39:06.186Z,19.95
2022-10-11T18:41:35.365Z,16.02
2022-10-11T18:44:06.296Z,11.80
2022-10-11T18:46:34.238Z,18.52
2022-10-11T18:49:02.271Z,16.15
2022-10-11T18:51:34.837Z,10.52
2022-10-11T18:54:02.291Z,11.60
2022-10-11T18:56:30.755Z,17.40
2022-10-11T18:58:59.007Z,16.40
2022-10-11T19:01:32.371Z,13.52
2022-10-11T19:04:01.941Z,15.77
2022-10-11T19:06:34.616Z,10.50
2022-10-11T19:09:09.360Z,17.05
2022-10-11T19:11:36.889Z,14.00
2022-10-11T19:14:11.115Z,12.63
2022-10-11T19:16:40.598Z,13.77
2022-10-11T19:19:09.424Z,19.38
2022-10-11T19:21:36.284Z,18.77
2022-10-11T19:24:04.903Z,13.27
2022-10-11T19:26:37.169Z,16.13
2022-10-11T19:29:08.178Z,18.83
2022-10-11T19:31:37.163Z,17.02
2022-10-11T19:34:04.089Z,20.20
2022-10-11T19:36:36.308Z,17.58
2022-10-11T19:39:05.310Z,16.40
2022-10-11T19:41:32.316Z,17.42
2022-10-11T19:43:59.707Z,14.30
2022-10-11T19:46:49.843Z,14.52
2022-10-11T19:49:17.659Z,13.40
2022-10-11T19:51:45.078Z,21.42
2022-10-11T19:54:14.024Z,24.48
2022-10-11T19:56:42.516Z,18.75
2022-10-11T19:59:11.194Z,20.00
2022-10-11T20:01:38.406Z,23.15
2022-10-11T20:04:07.616Z,18.63
2022-10-11T20:06:38.512Z,21.83
2022-10-11T20:09:28.525Z,27.90
2022-10-11T20:11:56.885Z,24.00
2022-10-11T20:14:23.961Z,23.85
2022-10-11T20:16:51.295Z,26.58
2022-10-11T20:19:18.890Z,27.77
2022-10-11T20:21:46.104Z,24.95
2022-10-11T20:24:13.268Z,30.10
2022-10-11T20:26:40.107Z,27.38
2022-10-11T20:29:07.494Z,23.38
2022-10-11T20:31:40.819Z,27.80
2022-10-11T20:34:08.071Z,35.47
2022-10-11T20:36:36.396Z,28.33
2022-10-11T20:39:04.733Z,35.08
2022-10-11T20:41:36.972Z,22.05
2022-10-11T20:44:04.749Z,35.60
2022-10-11T20:46:33.851Z,30.73
2022-10-11T20:49:03.558Z,29.70
2022-10-11T20:51:32.394Z,40.83
2022-10-11T20:54:00.664Z,35.72
2022-10-11T20:56:28.536Z,40.38
2022-10-11T20:58:57.161Z,36.05
2022-10-11T21:01:32.633Z,39.42
2022-10-11T21:04:01.361Z,40.53
2022-10-11T21:06:29.596Z,40.38
2022-10-11T21:08:59.010Z,39.85
2022-10-11T21:11:31.289Z,36.72
2022-10-11T21:14:00.927Z,36.88
2022-10-11T21:16:28.500Z,38.50
2022-10-11T21:18:57.375Z,38.28
2022-10-11T21:21:25.367Z,31.60
2022-10-11T21:23:56.332Z,34.05
2022-10-11T21:26:23.876Z,31.55
2022-10-11T21:28:51.331Z,39.00
2022-10-11T21:31:20.604Z,30.08
2022-10-11T21:33:48.117Z,45.63
2022-10-11T21:36:20.529Z,41.35
2022-10-11T21:38:48.451Z,38.50
2022-10-11T21:41:21.831Z,43.20
2022-10-11T21:43:49.401Z,46.05
2022-10-11T21:46:20.934Z,40.42
2022-10-11T21:48:50.106Z,39.03
2022-10-11T21:51:29.765Z,36.70
2022-10-11T21:53:59.670Z,41.20
2022-10-11T21:56:30.432Z,39.33
2022-10-11T21:58:57.531Z,39.53
2022-10-11T22:01:24.802Z,51.67
2022-10-11T22:03:53.565Z,43.40
2022-10-11T22:06:21.555Z,39.80
2022-10-11T22:08:50.096Z,40.88
2022-10-11T22:11:17.630Z,43.78
2022-10-11T22:13:44.912Z,43.90
2022-10-11T22:16:13.306Z,39.90
2022-10-11T22:18:41.486Z,41.50
2022-10-11T22:21:14.652Z,34.95
2022-10-11T22:23:43.918Z,46.50
2022-10-11T22:26:16.790Z,46.35
2022-10-11T22:28:46.506Z,56.90
2022-10-11T22:31:14.884Z,42.22
2022-10-11T22:33:42.267Z,46.40
2022-10-11T22:36:12.058Z,49.70
2022-10-11T22:38:42.940Z,44.05
2022-10-11T22:41:10.515Z,43.33
2022-10-11T22:43:37.956Z,44.53
2022-10-11T22:46:05.730Z,59.55
2022-10-11T22:48:32.768Z,49.28
2022-10-11T22:51:00.199Z,46.78
2022-10-11T22:53:27.273Z,50.72
2022-10-11T22:55:54.387Z,42.63
2022-10-11T22:58:21.223Z,49.42
2022-10-11T23:00:48.104Z,45.10
2022-10-11T23:03:16.906Z,42.80
2022-10-11T23:05:43.978Z,44.83
2022-10-11T23:08:12.001Z,52.08
2022-10-11T23:10:40.134Z,48.78
2022-10-11T23:13:07.246Z,52.28
2022-10-11T23:15:34.145Z,56.80
2022-10-11T23:18:01.011Z,50.25
2022-10-11T23:20:27.981Z,46.50
2022-10-11T23:22:54.935Z,39.50
2022-10-11T23:25:21.786Z,45.10
2022-10-11T23:27:48.666Z,54.03
2022-10-11T23:30:15.863Z,49.20
2022-10-11T23:32:42.823Z,38.90
2022-10-11T23:35:10.002Z,44.55
2022-10-11T23:37:37.274Z,44.53
2022-10-11T23:40:04.944Z,48.33
2022-10-11T23:42:32.019Z,42.85
2022-10-11T23:44:59.357Z,40.08
2022-10-11T23:47:26.251Z,38.78
2022-10-11T23:49:53.323Z,48.97
2022-10-11T23:52:20.271Z,41.63
2022-10-11T23:54:47.313Z,44.28
2022-10-11T23:57:14.553Z,44.00
2022-10-11T23:59:41.646Z,54.60
